x

Seal Rocks - Between Montague And Hinchinbrook Islands, Ak (46061) Wave Buoy

1:50am - Sat 25th Nov 2017 All times are AKST. -9 hours from GMT.

  • Sig Wave height 6.2ft
  • Swell Direction
  • Peak Period 8s
  • Average Period 6s
  • Wind
    22mph, 27mph gusts
  • Sea Temp 44°f
  • Air Temp 34°f
  • Sea Pressure 998mb
  • Seal Rocks - Between Montague And Hinchinbrook Islands, Ak
  • Seal Rocks - Between Montague And Hinchinbrook Islands, Ak

More Historic Weather Station data

Upgrade to MSW Pro to gain access to the past 30 days of data for over 8000 Wavebouys and Weather Stations around the globe.

Join

Comparision Forecast

View Surf forecast
   
Sat 11/25 1:50am 6ft 8s 6s 22 27 mph 998mb 44f 34f
12:50am 6ft 9s 6s 20 25 mph 997.9mb 44f 33f
Fri 11/24 11:50pm 6.5ft 9s 7s 20 27 mph 997.6mb 44f 33f
10:50pm 6ft 9s 6s 22 27 mph 997.1mb 44f 33f
9:50pm 6ft 10s 6s 20 27 mph 996.9mb 44f 33f
8:50pm 7ft 10s 7s 22 31 mph 996.5mb 44f 33f
7:50pm 6ft 8s 6s 22 27 mph 996.3mb 44f 33f
6:50pm 7ft 10s 6s 22 25 mph 995.7mb 44f 32f
5:50pm 6.5ft 10s 6s 22 27 mph 995.2mb 44f 32f
4:50pm 7ft 11s 6s 22 27 mph 994.6mb 44f 32f
2:50pm 6.5ft 11s 6s 25 31 mph 993.7mb 44f 32f
1:50pm 6ft 11s 6s 22 29 mph 993.5mb 44f 32f
12:50pm 6ft 11s 6s 22 29 mph 993.4mb 44f 32f
11:50am 5ft 11s 6s 22 29 mph 993.3mb 44f 33f
10:50am 5.5ft 6s 5s 25 29 mph 992.8mb 44f 33f
9:50am 5.5ft 11s 6s 25 31 mph 992mb 45f 33f
8:50am 5ft 11s 5s 27 31 mph 991.4mb 45f 33f
7:50am 5ft 11s 5s 29 36 mph 990.5mb 45f 33f
6:50am 6ft 11s 5s 27 36 mph 990.6mb 45f 34f
5:50am 6ft 11s 5s 29 36 mph 990.3mb 45f 34f
4:50am 5.5ft 5s 5s 29 34 mph 989.9mb 44f 34f
3:50am 5ft 6s 5s 29 34 mph 989.7mb 44f 34f
2:50am 4.5ft 6s 5s 27 34 mph 989.2mb 44f 35f
1:50am 3.5ft 10s 5s 27 34 mph 989.2mb 44f 36f
12:50am 3.5ft 12s 5s 22 27 mph 989.3mb 44f 36f
Thu 11/23 11:50pm 2.5ft 10s 4s 25 27 mph 989.1mb 44f 37f
10:50pm 2.5ft 9s 4s 22 27 mph 988.8mb 44f 37f
9:50pm 2.5ft 10s 4s 20 25 mph 988.7mb 44f 37f
8:50pm 3.5ft 10s 4s 20 27 mph 988.3mb 45f 36f
7:50pm 3ft 10s 4s 27 34 mph 987.6mb 45f 35f
6:50pm 3ft 10s 4s 20 27 mph 987.5mb 45f 34f
5:50pm 3.5ft 11s 4s 20 25 mph 987.1mb 45f 34f
4:50pm 3.5ft 11s 4s 20 25 mph 986.8mb 45f 34f
3:50pm 3.5ft 11s 5s 18 22 mph 986.7mb 44f 34f
2:50pm 2.5ft 11s 5s 18 22 mph 986.5mb 44f 34f
1:50pm 2.5ft 11s 5s 16 20 mph 986.7mb 44f 34f
12:50pm 3ft 11s 6s 11 13 mph 987mb 44f 34f
11:50am 3ft 11s 6s 9 11 mph 987.3mb 44f 33f
10:50am 3.5ft 11s 7s 11 13 mph 987.2mb 44f 33f
9:50am 4ft 11s 8s 4 9 mph 987.3mb 44f 32f
8:50am 4ft 11s 8s 7 9 mph 987.2mb 44f 31f
7:50am 3.5ft 11s 7s  -  2 mph 987.5mb 44f 31f
6:50am 3.5ft 11s 7s 7 9 mph 987.6mb 45f 32f
5:50am 3ft 12s 7s 9 11 mph 987.8mb 45f 33f
4:50am 2.5ft 13s 7s 7 7 mph 988.3mb 45f 33f
3:50am 2ft 14s 6s 7 11 mph 988.8mb 45f 33f
2:50am 2ft 13s 6s 7 9 mph 989.4mb 45f 33f
1:50am 2ft 10s 5s 9 11 mph 989.9mb 45f 34f
12:50am 2.5ft 9s 5s 4 7 mph 990.6mb 45f 34f
Wed 11/22 11:50pm 2.5ft 8s 5s 11 16 mph 991.2mb 45f 34f
10:50pm 2.5ft 8s 5s 13 16 mph 992mb 45f 33f
9:50pm 2.5ft 9s 5s 16 20 mph 992.6mb 45f 34f
8:50pm 2.5ft 9s 5s 16 20 mph 993.1mb 45f 34f
7:50pm 2.5ft 9s 5s 18 20 mph 993.8mb 45f 34f
6:50pm 2.5ft 8s 4s 20 25 mph 994.2mb 45f 34f
5:50pm 2.5ft 11s 4s 22 29 mph 994.3mb 45f 34f
4:50pm 3ft 9s 4s 22 27 mph 994.9mb 45f 34f
3:50pm 3ft 8s 4s 25 29 mph 996.2mb 45f 34f
2:50pm 3ft 9s 4s 25 27 mph 996.7mb 45f 35f
1:50pm 3.5ft 9s 4s 25 31 mph 997.6mb 45f 35f
12:50pm 3.5ft 9s 4s 27 34 mph 998.3mb 45f 35f
11:50am 3.5ft 9s 4s 29 36 mph 998.6mb 45f 35f
10:50am 3.5ft 9s 4s 27 31 mph 999.7mb 45f 35f
9:50am 3.5ft 9s 4s 29 34 mph 1000.2mb 45f 36f
8:50am 3.5ft 9s 5s 27 31 mph 1000.8mb 45f 35f
7:50am 3.5ft 10s 5s 25 31 mph 1000.8mb 45f 35f
6:50am 4ft 9s 5s 22 29 mph 1000.9mb 46f 35f
5:50am 3.5ft 10s 6s 22 27 mph 1002.1mb 46f 36f
4:50am 4.5ft 10s 6s 20 25 mph 1002.3mb 46f 35f
3:50am 4.5ft 10s 6s 16 20 mph 1003.3mb 46f 35f
2:50am 4.5ft 10s 6s 18 22 mph 1004.2mb 45f 35f
1:50am 4.5ft 10s 7s 18 22 mph 1005mb 45f 35f
12:50am 4.5ft 10s 7s 16 18 mph 1005.4mb 45f 35f
Tue 11/21 11:50pm 5ft 10s 7s 16 20 mph 1005.8mb 45f 36f
10:50pm 5ft 10s 7s 11 16 mph 1006.6mb 45f 35f
9:50pm 5.5ft 10s 8s 16 20 mph 1007.1mb 45f 35f
8:50pm 5ft 10s 8s 16 18 mph 1007.4mb 45f 36f
7:50pm 5ft 10s 8s 9 13 mph 1007.9mb 45f 36f
6:50pm 5ft 10s 8s 9 13 mph 1008.1mb 46f 37f
5:50pm 4.5ft 11s 7s 9 13 mph 1008.2mb 46f 36f
4:50pm 5ft 11s 7s 11 16 mph 1008.3mb 46f 37f
3:50pm 5ft 11s 6s 11 16 mph 1009mb 46f 37f
2:50pm 5.5ft 11s 7s 11 16 mph 1009.7mb 46f 36f
1:50pm 5ft 11s 7s 13 16 mph 1010.2mb 46f 37f
12:50pm 5ft 11s 7s 11 16 mph 1010.7mb 46f 37f